createdAt,value
2023-04-09T00:02:22.635Z,99400.89
2023-04-09T00:05:15.357Z,99398.67
2023-04-09T00:08:07.818Z,99395.21
2023-04-09T00:11:00.529Z,99392.64
2023-04-09T00:13:52.576Z,99391.20
2023-04-09T00:16:27.483Z,99389.27
2023-04-09T00:19:19.965Z,99395.14
2023-04-09T00:22:12.038Z,99392.59
2023-04-09T00:25:04.135Z,99394.01
2023-04-09T00:27:56.596Z,99393.05
2023-04-09T00:30:48.637Z,99395.13
2023-04-09T00:33:40.653Z,99401.80
2023-04-09T00:36:32.636Z,99404.39
2023-04-09T00:39:09.554Z,99407.11
2023-04-09T00:42:03.102Z,99407.05
2023-04-09T00:44:55.275Z,99415.08
2023-04-09T00:47:47.543Z,99415.20
2023-04-09T00:50:39.658Z,99414.42
2023-04-09T00:53:31.870Z,99417.40
2023-04-09T00:56:24.724Z,99411.60
2023-04-09T00:59:17.365Z,99409.77
2023-04-09T01:02:09.417Z,99407.91
2023-04-09T01:05:02.171Z,99404.77
2023-04-09T01:08:07.986Z,99408.12
2023-04-09T01:11:09.892Z,99401.08
2023-04-09T01:14:09.758Z,99405.23
2023-04-09T01:17:07.422Z,99400.28
2023-04-09T01:20:05.024Z,99399.15
2023-04-09T01:23:06.459Z,99397.45
2023-04-09T01:26:06.009Z,99393.08
2023-04-09T01:29:00.380Z,99399.21
2023-04-09T01:31:53.201Z,99401.14
2023-04-09T01:34:48.224Z,99405.52
2023-04-09T01:37:41.116Z,99407.61
2023-04-09T01:40:33.146Z,99409.08
2023-04-09T01:43:27.114Z,99407.56
2023-04-09T01:46:20.702Z,99407.51
2023-04-09T01:49:13.967Z,99408.81
2023-04-09T01:52:06.281Z,99410.81
2023-04-09T01:54:58.246Z,99409.98
2023-04-09T01:57:40.413Z,99408.52
2023-04-09T02:00:39.108Z,99411.82
2023-04-09T02:03:35.471Z,99406.21
2023-04-09T02:06:33.109Z,99406.73
2023-04-09T02:09:30.295Z,99404.87
2023-04-09T02:12:22.733Z,99399.38
2023-04-09T02:15:16.250Z,99404.55
2023-04-09T02:18:21.493Z,99405.36
2023-04-09T02:21:13.876Z,99407.34
2023-04-09T02:24:06.287Z,99412.63
2023-04-09T02:26:58.347Z,99410.41
2023-04-09T02:29:50.269Z,99406.27
2023-04-09T02:32:42.312Z,99407.81
2023-04-09T02:35:34.438Z,99410.86
2023-04-09T02:38:26.800Z,99409.80
2023-04-09T02:41:18.740Z,99409.46
2023-04-09T02:44:10.678Z,99414.20
2023-04-09T02:47:03.226Z,99410.23
2023-04-09T02:49:55.259Z,99411.92
2023-04-09T02:52:49.691Z,99405.44
2023-04-09T02:55:41.717Z,99402.94
2023-04-09T02:58:33.709Z,99401.42
2023-04-09T03:01:25.570Z,99402.84
2023-04-09T03:04:17.648Z,99403.25
2023-04-09T03:07:09.896Z,99406.14
2023-04-09T03:10:01.994Z,99406.72
2023-04-09T03:12:54.682Z,99410.83
2023-04-09T03:15:46.674Z,99408.18
2023-04-09T03:18:38.795Z,99411.23
2023-04-09T03:21:30.804Z,99408.08
2023-04-09T03:24:22.859Z,99407.27
2023-04-09T03:27:14.886Z,99405.27
2023-04-09T03:30:08.429Z,99403.27
2023-04-09T03:33:00.442Z,99400.10
2023-04-09T03:35:52.580Z,99401.67
2023-04-09T03:38:44.618Z,99402.92
2023-04-09T03:41:36.593Z,99403.77
2023-04-09T03:44:11.465Z,99399.80
2023-04-09T03:47:03.488Z,99402.43
2023-04-09T03:49:55.438Z,99400.23
2023-04-09T03:52:47.417Z,99406.83
2023-04-09T03:55:39.887Z,99409.49
2023-04-09T03:58:31.986Z,99411.86
2023-04-09T04:01:23.991Z,99412.52
2023-04-09T04:04:16.153Z,99415.58
2023-04-09T04:07:09.248Z,99415.77
2023-04-09T04:10:01.195Z,99417.27
2023-04-09T04:12:53.331Z,99416.83
2023-04-09T04:15:45.493Z,99415.91
2023-04-09T04:18:37.764Z,99417.23
2023-04-09T04:21:29.778Z,99416.76
2023-04-09T04:24:21.719Z,99419.54
2023-04-09T04:27:13.671Z,99417.38
2023-04-09T04:30:07.038Z,99409.39
2023-04-09T04:32:59.082Z,99406.67
2023-04-09T04:35:51.206Z,99407.30
2023-04-09T04:38:43.492Z,99409.02
2023-04-09T04:41:35.459Z,99416.21
2023-04-09T04:44:27.437Z,99415.77
2023-04-09T04:47:19.481Z,99411.88
2023-04-09T04:50:12.682Z,99411.36
2023-04-09T04:53:04.664Z,99412.47
2023-04-09T04:55:56.678Z,99423.45
2023-04-09T04:58:48.654Z,99424.84
2023-04-09T05:01:25.865Z,99425.31
2023-04-09T05:04:17.987Z,99430.60
2023-04-09T05:07:09.990Z,99432.23
2023-04-09T05:10:02.018Z,99427.66
2023-04-09T05:12:53.974Z,99429.73
2023-04-09T05:15:45.981Z,99430.45
2023-04-09T05:18:32.106Z,99431.56
2023-04-09T05:21:24.183Z,99434.79
2023-04-09T05:24:16.124Z,99437.09
2023-04-09T05:27:08.062Z,99435.80
2023-04-09T05:30:01.038Z,99436.97
2023-04-09T05:32:53.212Z,99436.89
2023-04-09T05:35:45.402Z,99442.71
2023-04-09T05:38:37.430Z,99443.82
2023-04-09T05:41:29.427Z,99441.74
2023-04-09T05:44:21.593Z,99449.27
2023-04-09T05:47:13.596Z,99446.95
2023-04-09T05:50:05.922Z,99448.03
2023-04-09T05:52:57.889Z,99451.04
2023-04-09T05:55:50.239Z,99453.09
2023-04-09T05:58:42.481Z,99451.69
2023-04-09T06:01:34.530Z,99455.35
2023-04-09T06:04:22.948Z,99453.50
2023-04-09T06:07:15.114Z,99451.40
2023-04-09T06:10:08.502Z,99454.03
2023-04-09T06:13:00.534Z,99452.47
2023-04-09T06:15:52.725Z,99457.20
2023-04-09T06:18:46.783Z,99455.90
2023-04-09T06:21:39.027Z,99460.30
2023-04-09T06:24:31.934Z,99459.45
2023-04-09T06:27:23.874Z,99460.35
2023-04-09T06:30:16.185Z,99462.71
2023-04-09T06:33:08.358Z,99464.38
2023-04-09T06:36:00.687Z,99470.59
2023-04-09T06:38:52.924Z,99472.59
2023-04-09T06:41:44.978Z,99474.52
2023-04-09T06:44:37.525Z,99474.98
2023-04-09T06:47:29.635Z,99476.37
2023-04-09T06:50:21.769Z,99479.08
2023-04-09T06:53:03.218Z,99480.80
2023-04-09T06:55:56.730Z,99482.13
2023-04-09T06:58:49.380Z,99481.90
2023-04-09T07:01:41.971Z,99482.54
2023-04-09T07:04:34.151Z,99487.60
2023-04-09T07:07:26.435Z,99487.70
2023-04-09T07:10:18.718Z,99490.84
2023-04-09T07:13:10.967Z,99493.27
2023-04-09T07:16:03.049Z,99494.70
2023-04-09T07:18:55.103Z,99491.50
2023-04-09T07:21:47.300Z,99490.19
2023-04-09T07:24:39.323Z,99491.73
2023-04-09T07:27:31.712Z,99495.30
2023-04-09T07:30:24.026Z,99492.33
2023-04-09T07:33:16.169Z,99494.00
2023-04-09T07:36:08.665Z,99496.52
2023-04-09T07:39:00.847Z,99496.46
2023-04-09T07:41:52.876Z,99494.09
2023-04-09T07:44:45.077Z,99493.94
2023-04-09T07:47:37.160Z,99492.79
2023-04-09T07:50:29.671Z,99488.37
2023-04-09T07:53:21.842Z,99482.51
2023-04-09T07:56:14.048Z,99482.12
2023-04-09T07:59:06.321Z,99492.41
2023-04-09T08:01:58.352Z,99496.22
2023-04-09T08:04:50.841Z,99499.27
2023-04-09T08:07:43.375Z,99498.08
2023-04-09T08:10:35.396Z,99493.70
2023-04-09T08:13:27.504Z,99499.53
2023-04-09T08:16:19.567Z,99501.52
2023-04-09T08:19:12.085Z,99507.46
2023-04-09T08:22:04.885Z,99509.05
2023-04-09T08:24:58.447Z,99512.41
2023-04-09T08:27:51.530Z,99511.75
2023-04-09T08:30:44.047Z,99512.73
2023-04-09T08:33:34.160Z,99521.51
2023-04-09T08:36:26.383Z,99516.36
2023-04-09T08:39:20.623Z,99519.22
2023-04-09T08:42:13.021Z,99518.48
2023-04-09T08:45:08.758Z,99522.33
2023-04-09T08:48:03.356Z,99520.39
2023-04-09T08:50:55.955Z,99521.52
2023-04-09T08:53:52.600Z,99521.10
2023-04-09T08:56:44.656Z,99517.64
2023-04-09T08:59:37.814Z,99512.85
2023-04-09T09:02:31.439Z,99516.23
2023-04-09T09:05:39.381Z,99513.72
2023-04-09T09:08:31.412Z,99513.67
2023-04-09T09:11:30.379Z,99514.33
2023-04-09T09:14:22.638Z,99516.13
2023-04-09T09:17:14.804Z,99512.52
2023-04-09T09:20:22.152Z,99514.77
2023-04-09T09:23:14.156Z,99517.92
2023-04-09T09:26:16.445Z,99511.65
2023-04-09T09:29:09.240Z,99511.50
2023-04-09T09:32:01.279Z,99515.08
2023-04-09T09:35:02.798Z,99516.93
2023-04-09T09:38:05.489Z,99516.02
2023-04-09T09:40:57.740Z,99518.95
2023-04-09T09:43:49.936Z,99519.05
2023-04-09T09:46:43.262Z,99519.45
2023-04-09T09:49:35.311Z,99519.43
2023-04-09T09:52:28.008Z,99519.52
2023-04-09T09:55:21.819Z,99519.83
2023-04-09T09:58:23.655Z,99517.81
2023-04-09T10:01:19.235Z,99515.52
2023-04-09T10:04:03.532Z,99513.57
2023-04-09T10:06:56.747Z,99507.30
2023-04-09T10:09:52.974Z,99510.27
2023-04-09T10:12:46.308Z,99510.13
2023-04-09T10:15:38.710Z,99505.89
2023-04-09T10:18:33.400Z,99506.28
2023-04-09T10:21:34.505Z,99510.73
2023-04-09T10:24:27.048Z,99505.39
2023-04-09T10:27:19.571Z,99499.10
2023-04-09T10:30:32.019Z,99493.27
2023-04-09T10:33:27.841Z,99491.10
2023-04-09T10:36:22.309Z,99491.17
2023-04-09T10:39:15.954Z,99488.30
2023-04-09T10:42:14.532Z,99484.50
2023-04-09T10:45:11.994Z,99484.73
2023-04-09T10:48:05.892Z,99481.77
2023-04-09T10:50:57.967Z,99480.27
2023-04-09T10:53:54.195Z,99479.16
2023-04-09T10:56:28.148Z,99477.90
2023-04-09T10:59:20.320Z,99480.05
2023-04-09T11:02:56.122Z,99476.73
2023-04-09T11:05:52.457Z,99476.34
2023-04-09T11:08:48.247Z,99478.59
2023-04-09T11:11:40.650Z,99478.70
2023-04-09T11:14:34.351Z,99475.66
2023-04-09T11:17:26.464Z,99473.26
2023-04-09T11:20:21.290Z,99473.19
2023-04-09T11:23:02.677Z,99476.04
2023-04-09T11:25:55.474Z,99470.58
2023-04-09T11:28:47.507Z,99470.75
2023-04-09T11:31:39.825Z,99467.82
2023-04-09T11:34:32.011Z,99472.55
2023-04-09T11:37:24.055Z,99470.63
2023-04-09T11:40:19.868Z,99473.84
2023-04-09T11:43:11.911Z,99470.13
2023-04-09T11:46:08.235Z,99466.55
2023-04-09T11:49:00.402Z,99467.23
2023-04-09T11:51:53.249Z,99465.63
2023-04-09T11:54:49.104Z,99462.84
2023-04-09T11:57:43.998Z,99465.76
2023-04-09T12:00:36.065Z,99461.30
2023-04-09T12:03:36.896Z,99462.88
2023-04-09T12:06:30.152Z,99457.27
2023-04-09T12:09:22.568Z,99461.45
2023-04-09T12:12:18.925Z,99459.23
2023-04-09T12:15:23.668Z,99461.79
2023-04-09T12:18:16.020Z,99458.16
2023-04-09T12:21:08.329Z,99460.98
2023-04-09T12:24:00.289Z,99455.52
2023-04-09T12:26:53.094Z,99460.40
2023-04-09T12:29:45.119Z,99456.02
2023-04-09T12:32:37.161Z,99453.65
2023-04-09T12:35:29.386Z,99450.75
2023-04-09T12:38:21.424Z,99454.70
2023-04-09T12:41:13.416Z,99452.41
2023-04-09T12:44:07.300Z,99445.85
2023-04-09T12:46:59.247Z,99448.04
2023-04-09T12:49:51.275Z,99444.08
2023-04-09T12:52:43.409Z,99444.44
2023-04-09T12:55:35.634Z,99441.13
2023-04-09T12:58:27.649Z,99434.98
2023-04-09T13:01:19.687Z,99435.09
2023-04-09T13:04:12.118Z,99426.72
2023-04-09T13:07:04.194Z,99429.86
2023-04-09T13:09:56.180Z,99432.42
2023-04-09T13:12:48.111Z,99430.46
2023-04-09T13:15:40.319Z,99427.95
2023-04-09T13:18:32.271Z,99423.43
2023-04-09T13:21:24.398Z,99423.32
2023-04-09T13:24:16.648Z,99422.16
2023-04-09T13:27:09.845Z,99424.73
2023-04-09T13:30:01.930Z,99427.73
2023-04-09T13:32:53.966Z,99427.98
2023-04-09T13:35:46.066Z,99429.67
2023-04-09T13:38:38.321Z,99439.17
2023-04-09T13:41:31.818Z,99443.15
2023-04-09T13:44:23.997Z,99447.45
2023-04-09T13:47:18.839Z,99451.48
2023-04-09T13:50:13.774Z,99456.02
2023-04-09T13:53:06.696Z,99463.67
2023-04-09T13:55:58.683Z,99466.88
2023-04-09T13:58:50.974Z,99468.98
2023-04-09T14:01:43.197Z,99466.84
2023-04-09T14:04:35.311Z,99468.95
2023-04-09T14:07:27.366Z,99465.41
2023-04-09T14:10:19.504Z,99456.52
2023-04-09T14:13:12.237Z,99452.48
2023-04-09T14:16:04.550Z,99452.83
2023-04-09T14:18:56.776Z,99448.61
2023-04-09T14:21:48.828Z,99446.16
2023-04-09T14:24:41.337Z,99443.54
2023-04-09T14:27:33.467Z,99443.31
2023-04-09T14:30:25.655Z,99442.61
2023-04-09T14:33:17.679Z,99440.42
2023-04-09T14:36:10.848Z,99435.27
2023-04-09T14:39:02.987Z,99432.72
2023-04-09T14:41:57.037Z,99431.73
2023-04-09T14:44:49.100Z,99430.55
2023-04-09T14:47:25.875Z,99431.10
2023-04-09T14:50:18.073Z,99426.20
2023-04-09T14:53:10.081Z,99424.11
2023-04-09T14:56:02.067Z,99427.33
2023-04-09T14:58:54.305Z,99425.74
2023-04-09T15:01:46.797Z,99430.05
2023-04-09T15:04:39.168Z,99430.80
2023-04-09T15:07:31.535Z,99429.52
2023-04-09T15:10:23.592Z,99427.29
2023-04-09T15:13:15.643Z,99427.15
2023-04-09T15:16:08.898Z,99421.59
2023-04-09T15:19:02.611Z,99421.67
2023-04-09T15:21:54.592Z,99418.75
2023-04-09T15:24:46.581Z,99419.79
2023-04-09T15:27:38.684Z,99423.07
2023-04-09T15:30:30.730Z,99426.55
2023-04-09T15:33:02.620Z,99426.98
2023-04-09T15:35:54.643Z,99433.66
2023-04-09T15:38:46.672Z,99430.90
2023-04-09T15:41:38.938Z,99432.99
2023-04-09T15:44:31.123Z,99433.69
2023-04-09T15:47:23.071Z,99429.33
2023-04-09T15:50:15.556Z,99433.34
2023-04-09T15:53:07.594Z,99438.55
2023-04-09T15:55:59.530Z,99438.66
2023-04-09T15:58:51.939Z,99436.27
2023-04-09T16:01:44.280Z,99439.00
2023-04-09T16:04:36.112Z,99441.30
2023-04-09T16:07:28.361Z,99439.98
2023-04-09T16:10:20.463Z,99442.86
2023-04-09T16:13:12.459Z,99445.10
2023-04-09T16:16:04.706Z,99447.66
2023-04-09T16:18:56.854Z,99449.52
2023-04-09T16:21:49.096Z,99447.58
2023-04-09T16:24:41.088Z,99444.73
2023-04-09T16:27:33.070Z,99445.53
2023-04-09T16:30:25.043Z,99447.41
2023-04-09T16:33:17.036Z,99443.80
2023-04-09T16:36:09.910Z,99445.38
2023-04-09T16:39:02.006Z,99446.94
2023-04-09T16:41:54.691Z,99446.20
2023-04-09T16:44:46.732Z,99454.13
2023-04-09T16:47:38.741Z,99454.95
2023-04-09T16:50:30.914Z,99456.52
2023-04-09T16:53:04.413Z,99452.98
2023-04-09T16:55:56.891Z,99452.86
2023-04-09T16:58:49.171Z,99454.39
2023-04-09T17:01:41.301Z,99458.12
2023-04-09T17:04:34.399Z,99464.27
2023-04-09T17:07:26.533Z,99462.13
2023-04-09T17:10:19.196Z,99462.23
2023-04-09T17:13:12.129Z,99469.20
2023-04-09T17:16:04.462Z,99469.13
2023-04-09T17:18:56.559Z,99473.23
2023-04-09T17:21:48.566Z,99478.81
2023-04-09T17:24:40.850Z,99477.89
2023-04-09T17:27:33.205Z,99479.71
2023-04-09T17:30:25.716Z,99482.11
2023-04-09T17:33:17.784Z,99483.06
2023-04-09T17:36:10.517Z,99483.55
2023-04-09T17:39:02.967Z,99486.89
2023-04-09T17:41:56.603Z,99488.43
2023-04-09T17:44:48.725Z,99496.11
2023-04-09T17:47:40.864Z,99499.63
2023-04-09T17:50:33.076Z,99502.92
2023-04-09T17:53:25.435Z,99501.13
2023-04-09T17:56:19.193Z,99507.91
2023-04-09T17:59:11.740Z,99505.83
2023-04-09T18:02:04.520Z,99511.30
2023-04-09T18:04:58.620Z,99511.13
2023-04-09T18:07:51.708Z,99513.66
2023-04-09T18:10:43.470Z,99514.12
2023-04-09T18:13:35.530Z,99512.02
2023-04-09T18:16:29.145Z,99518.11
2023-04-09T18:19:21.254Z,99525.69
2023-04-09T18:22:13.651Z,99523.48
2023-04-09T18:25:07.040Z,99526.80
2023-04-09T18:27:59.216Z,99529.45
2023-04-09T18:30:51.602Z,99527.23
2023-04-09T18:33:43.667Z,99529.56
2023-04-09T18:36:36.052Z,99533.88
2023-04-09T18:39:28.345Z,99537.38
2023-04-09T18:42:20.761Z,99543.91
2023-04-09T18:45:13.829Z,99542.39
2023-04-09T18:48:06.265Z,99542.15
2023-04-09T18:50:59.005Z,99544.55
2023-04-09T18:53:53.784Z,99551.40
2023-04-09T18:56:46.476Z,99554.54
2023-04-09T18:59:40.266Z,99554.22
2023-04-09T19:02:33.062Z,99551.52
2023-04-09T19:05:25.469Z,99553.05
2023-04-09T19:08:17.526Z,99551.34
2023-04-09T19:11:09.879Z,99551.59
2023-04-09T19:14:02.179Z,99545.09
2023-04-09T19:16:54.714Z,99546.11
2023-04-09T19:19:46.793Z,99557.13
2023-04-09T19:22:39.163Z,99558.69
2023-04-09T19:25:31.341Z,99558.19
2023-04-09T19:28:23.710Z,99565.40
2023-04-09T19:31:16.908Z,99562.36
2023-04-09T19:34:10.718Z,99564.80
2023-04-09T19:37:03.551Z,99562.98
2023-04-09T19:39:56.075Z,99564.19
2023-04-09T19:42:48.168Z,99566.30
2023-04-09T19:45:41.085Z,99565.81
2023-04-09T19:48:33.093Z,99566.78
2023-04-09T19:51:25.918Z,99565.73
2023-04-09T19:54:18.201Z,99563.85
2023-04-09T19:57:10.723Z,99564.41
2023-04-09T20:00:02.983Z,99563.23
2023-04-09T20:02:55.287Z,99565.97
2023-04-09T20:05:47.483Z,99569.08
2023-04-09T20:08:39.581Z,99566.32
2023-04-09T20:11:31.706Z,99566.68
2023-04-09T20:14:23.746Z,99566.94
2023-04-09T20:17:17.227Z,99560.59
2023-04-09T20:20:10.824Z,99562.87
2023-04-09T20:23:03.337Z,99567.14
2023-04-09T20:25:56.781Z,99565.15
2023-04-09T20:28:49.806Z,99562.02
2023-04-09T20:31:42.451Z,99568.77
2023-04-09T20:34:34.827Z,99565.48
2023-04-09T20:37:26.930Z,99566.81
2023-04-09T20:40:18.983Z,99571.30
2023-04-09T20:43:11.083Z,99570.48
2023-04-09T20:46:03.176Z,99567.00
2023-04-09T20:48:55.585Z,99569.68
2023-04-09T20:51:47.738Z,99571.11
2023-04-09T20:54:40.414Z,99573.65
2023-04-09T20:57:33.272Z,99574.42
2023-04-09T21:00:25.690Z,99572.56
2023-04-09T21:03:17.777Z,99576.80
2023-04-09T21:06:10.362Z,99574.67
2023-04-09T21:09:02.479Z,99573.20
2023-04-09T21:11:54.495Z,99574.48
2023-04-09T21:14:29.375Z,99574.28
2023-04-09T21:17:21.358Z,99574.33
2023-04-09T21:20:15.072Z,99576.30
2023-04-09T21:23:07.383Z,99580.77
2023-04-09T21:26:01.578Z,99577.86
2023-04-09T21:28:53.750Z,99580.39
2023-04-09T21:31:45.869Z,99576.77
2023-04-09T21:34:39.524Z,99582.22
2023-04-09T21:37:33.635Z,99581.13
2023-04-09T21:40:25.677Z,99579.52
2023-04-09T21:43:17.869Z,99579.69
2023-04-09T21:46:09.952Z,99584.70
2023-04-09T21:48:55.372Z,99585.02
2023-04-09T21:51:49.010Z,99584.41
2023-04-09T21:54:40.993Z,99579.52
2023-04-09T21:57:33.002Z,99582.95
2023-04-09T22:00:25.079Z,99581.23
2023-04-09T22:03:17.220Z,99582.63
2023-04-09T22:06:11.579Z,99580.67
2023-04-09T22:09:03.775Z,99580.50
2023-04-09T22:11:57.334Z,99584.72
2023-04-09T22:14:49.347Z,99584.23
2023-04-09T22:17:41.570Z,99580.95
2023-04-09T22:20:33.651Z,99586.14
2023-04-09T22:23:26.051Z,99587.51
2023-04-09T22:26:18.008Z,99582.77
2023-04-09T22:29:09.978Z,99582.15
2023-04-09T22:32:02.613Z,99584.02
2023-04-09T22:34:54.620Z,99587.55
2023-04-09T22:37:47.265Z,99586.33
2023-04-09T22:40:39.334Z,99585.89
2023-04-09T22:43:31.654Z,99587.50
2023-04-09T22:46:23.668Z,99586.73
2023-04-09T22:49:24.191Z,99593.48
2023-04-09T22:52:16.374Z,99592.08
2023-04-09T22:55:10.948Z,99594.13
2023-04-09T22:58:03.088Z,99588.92
2023-04-09T23:00:55.100Z,99585.45
2023-04-09T23:03:47.109Z,99588.03
2023-04-09T23:06:39.452Z,99583.19
2023-04-09T23:09:32.020Z,99587.16
2023-04-09T23:12:24.113Z,99581.14
2023-04-09T23:15:16.148Z,99579.66
2023-04-09T23:18:08.283Z,99580.30
2023-04-09T23:21:03.527Z,99578.49
2023-04-09T23:23:55.951Z,99577.48
2023-04-09T23:26:48.083Z,99582.89
2023-04-09T23:29:40.051Z,99579.77
2023-04-09T23:32:32.146Z,99585.55
2023-04-09T23:35:24.343Z,99577.27
2023-04-09T23:38:16.597Z,99569.83
2023-04-09T23:41:08.759Z,99566.73
2023-04-09T23:44:00.960Z,99564.89
2023-04-09T23:46:53.249Z,99562.02
2023-04-09T23:49:45.301Z,99561.10
2023-04-09T23:52:38.990Z,99559.36
2023-04-09T23:55:33.226Z,99552.80
2023-04-09T23:58:23.640Z,99549.30
